KMMU/MMU METAR and TAF weather

Enter ICAO airport designator
Station Type Date Time Source
KMMU METAR 2021/09/28 16:45 UTC NOAA

KMMU 281645Z 12004KT 10SM TSRA SCT037 SCT044 OVC110 18/17 A2984 RMK LTG VC DSNT NE


Station Type Date Time Source
KMMU Decoded METAR 2021/09/28 16:45 UTC NOAA

Morristown Municipal, NJ, United States (KMMU) 40-48N 074-25W
Sep 28, 2021 - 12:45 PM EDT / 2021.09.28 1645 UTC
Wind: from the ESE (120 degrees) at 5 MPH (4 KT):0
Visibility: 10 mile(s):0
Sky conditions: overcast
Weather: rain with thunder; Lightning observed
Temperature: 64 F (18 C)
Dew Point: 62 F (17 C)
Relative Humidity: 93%
Pressure (altimeter): 29.84 in. Hg (1010 hPa)
ob: KMMU 281645Z 12004KT 10SM TSRA SCT037 SCT044 OVC110 18/17 A2984 RMK LTG VC DSNT NE
cycle: 17

Station Type Date Time Source
KMMU TAF UTC NOAA

Error!

Example: see airport list